createdAt,value
2016-03-05T00:00:04.738Z,988.44
2016-03-05T00:01:04.741Z,988.34
2016-03-05T00:02:04.759Z,988.2
2016-03-05T00:03:04.762Z,988.13
2016-03-05T00:04:04.764Z,988.12
2016-03-05T00:05:04.782Z,988.15
2016-03-05T00:06:04.785Z,988.19
2016-03-05T00:07:04.788Z,988.2
2016-03-05T00:08:04.790Z,988.2
2016-03-05T00:09:04.809Z,988.13
2016-03-05T00:10:04.811Z,988.1
2016-03-05T00:11:04.814Z,988.09
2016-03-05T00:12:04.817Z,988.07
2016-03-05T00:13:04.820Z,988.08
2016-03-05T00:14:04.979Z,988.05
2016-03-05T00:15:04.840Z,988.02
2016-03-05T00:16:04.843Z,987.95
2016-03-05T00:17:04.861Z,987.89
2016-03-05T00:18:04.865Z,987.82
2016-03-05T00:19:04.867Z,987.76
2016-03-05T00:20:04.869Z,987.75
2016-03-05T00:21:04.866Z,987.7
2016-03-05T00:22:04.873Z,987.66
2016-03-05T00:23:04.864Z,987.62
2016-03-05T00:24:04.855Z,987.59
2016-03-05T00:25:04.861Z,987.65
2016-03-05T00:26:04.857Z,987.67
2016-03-05T00:27:04.855Z,987.75
2016-03-05T00:28:04.873Z,987.86
2016-03-05T00:29:04.856Z,987.89
2016-03-05T00:30:04.866Z,987.89
2016-03-05T00:31:04.865Z,987.93
2016-03-05T00:32:04.867Z,987.98
2016-03-05T00:33:04.883Z,988.08
2016-03-05T00:34:04.886Z,988.08
2016-03-05T00:35:04.887Z,988.12
2016-03-05T00:36:04.888Z,988.08
2016-03-05T00:37:04.890Z,988.11
2016-03-05T00:38:04.907Z,988.1
2016-03-05T00:39:04.908Z,988.09
2016-03-05T00:40:04.910Z,988.07
2016-03-05T00:41:04.928Z,988.02
2016-03-05T00:42:04.932Z,987.97
2016-03-05T00:43:04.935Z,987.89
2016-03-05T00:44:04.937Z,987.91
2016-03-05T00:45:04.955Z,987.87
2016-03-05T00:46:04.957Z,987.84
2016-03-05T00:47:04.960Z,987.79
2016-03-05T00:48:04.962Z,987.77
2016-03-05T00:49:04.966Z,987.79
2016-03-05T00:50:04.984Z,987.81
2016-03-05T00:51:04.987Z,987.88
2016-03-05T00:52:04.989Z,987.89
2016-03-05T00:53:05.008Z,987.83
2016-03-05T00:54:05.010Z,987.79
2016-03-05T00:55:05.014Z,987.8
2016-03-05T00:56:05.017Z,987.81
2016-03-05T00:57:05.034Z,987.89
2016-03-05T00:58:05.037Z,987.86
2016-03-05T00:59:05.039Z,987.91
2016-03-05T01:00:05.042Z,987.91
2016-03-05T01:01:05.060Z,987.9
2016-03-05T01:02:05.063Z,987.89
2016-03-05T01:03:05.067Z,987.89
2016-03-05T01:04:05.069Z,987.88
2016-03-05T01:05:05.072Z,987.91
2016-03-05T01:06:05.090Z,987.99
2016-03-05T01:07:05.093Z,987.96
2016-03-05T01:08:05.095Z,988.01
2016-03-05T01:09:05.099Z,987.97
2016-03-05T01:10:05.116Z,988.01
2016-03-05T01:11:05.119Z,988.08
2016-03-05T01:12:05.121Z,988.1
2016-03-05T01:13:05.124Z,988.09
2016-03-05T01:14:05.142Z,988.07
2016-03-05T01:15:05.145Z,988.04
2016-03-05T01:16:05.148Z,988.09
2016-03-05T01:17:05.151Z,988.08
2016-03-05T01:18:05.169Z,988.08
2016-03-05T01:19:05.171Z,988.07
2016-03-05T01:20:05.174Z,988.05
2016-03-05T01:21:05.176Z,988.08
2016-03-05T01:22:05.195Z,988.08
2016-03-05T01:23:05.197Z,988.03
2016-03-05T01:24:05.201Z,987.99
2016-03-05T01:25:05.220Z,987.94
2016-03-05T01:26:05.206Z,987.91
2016-03-05T01:27:05.224Z,987.91
2016-03-05T01:28:05.227Z,987.91
2016-03-05T01:29:05.230Z,987.88
2016-03-05T01:30:05.233Z,987.89
2016-03-05T01:31:05.250Z,987.91
2016-03-05T01:32:05.253Z,987.96
2016-03-05T01:33:05.256Z,987.97
2016-03-05T01:34:05.275Z,987.98
2016-03-05T01:35:05.277Z,988.01
2016-03-05T01:36:05.279Z,988
2016-03-05T01:37:05.282Z,987.99
2016-03-05T01:38:05.286Z,988
2016-03-05T01:39:05.304Z,988
2016-03-05T01:40:05.307Z,987.97
2016-03-05T01:41:05.309Z,987.96
2016-03-05T01:42:05.312Z,987.97
2016-03-05T01:43:05.314Z,987.95
2016-03-05T01:44:05.332Z,987.94
2016-03-05T01:45:05.335Z,987.9
2016-03-05T01:46:05.338Z,987.84
2016-03-05T01:47:05.357Z,987.86
2016-03-05T01:48:05.359Z,987.78
2016-03-05T01:49:05.362Z,987.77
2016-03-05T01:50:05.364Z,987.69
2016-03-05T01:51:05.367Z,987.64
2016-03-05T01:52:05.384Z,987.6
2016-03-05T01:53:05.388Z,987.56
2016-03-05T01:54:05.391Z,987.55
2016-03-05T01:55:05.393Z,987.55
2016-03-05T01:56:05.411Z,987.51
2016-03-05T01:57:05.414Z,987.49
2016-03-05T01:58:05.417Z,987.47
2016-03-05T01:59:05.420Z,987.55
2016-03-05T02:00:05.438Z,987.63
2016-03-05T02:01:05.442Z,987.68
2016-03-05T02:02:05.444Z,987.73
2016-03-05T02:03:05.446Z,987.67
2016-03-05T02:04:05.464Z,987.67
2016-03-05T02:05:05.466Z,987.64
2016-03-05T02:06:05.470Z,987.64
2016-03-05T02:07:05.473Z,987.59
2016-03-05T02:08:05.491Z,987.59
2016-03-05T02:09:05.494Z,987.56
2016-03-05T02:10:05.496Z,987.57
2016-03-05T02:11:05.499Z,987.52
2016-03-05T02:12:05.517Z,987.53
2016-03-05T02:13:05.520Z,987.56
2016-03-05T02:14:05.524Z,987.58
2016-03-05T02:15:05.541Z,987.59
2016-03-05T02:16:05.544Z,987.62
2016-03-05T02:17:05.550Z,987.62
2016-03-05T02:18:05.553Z,987.62
2016-03-05T02:19:05.555Z,987.61
2016-03-05T02:20:05.558Z,987.55
2016-03-05T02:21:05.576Z,987.51
2016-03-05T02:22:05.579Z,987.58
2016-03-05T02:23:05.583Z,987.58
2016-03-05T02:24:05.585Z,987.6
2016-03-05T02:25:05.603Z,987.58
2016-03-05T02:26:05.605Z,987.58
2016-03-05T02:27:05.608Z,987.56
2016-03-05T02:28:05.610Z,987.52
2016-03-05T02:29:05.613Z,987.55
2016-03-05T02:30:05.632Z,987.48
2016-03-05T02:31:05.635Z,987.5
2016-03-05T02:32:05.637Z,987.51
2016-03-05T02:33:05.640Z,987.55
2016-03-05T02:34:05.659Z,987.61
2016-03-05T02:35:05.662Z,987.69
2016-03-05T02:36:05.664Z,987.71
2016-03-05T02:37:05.667Z,987.73
2016-03-05T02:38:05.685Z,987.72
2016-03-05T02:39:05.687Z,987.69
2016-03-05T02:40:05.690Z,987.69
2016-03-05T02:41:05.692Z,987.69
2016-03-05T02:42:05.711Z,987.66
2016-03-05T02:43:05.714Z,987.71
2016-03-05T02:44:05.717Z,987.75
2016-03-05T02:45:05.720Z,987.76
2016-03-05T02:46:05.722Z,987.77
2016-03-05T02:47:05.741Z,987.77
2016-03-05T02:48:05.743Z,987.78
2016-03-05T02:49:05.746Z,987.79
2016-03-05T02:50:05.763Z,987.77
2016-03-05T02:51:05.767Z,987.76
2016-03-05T02:52:05.770Z,987.77
2016-03-05T02:53:05.772Z,987.79
2016-03-05T02:54:05.775Z,987.74
2016-03-05T02:55:05.793Z,987.74
2016-03-05T02:56:05.796Z,987.73
2016-03-05T02:57:05.798Z,987.75
2016-03-05T02:58:05.801Z,987.69
2016-03-05T02:59:05.819Z,987.74
2016-03-05T03:00:05.822Z,987.76
2016-03-05T03:01:05.824Z,987.75
2016-03-05T03:02:05.874Z,987.78
2016-03-05T03:03:05.845Z,987.76
2016-03-05T03:04:05.848Z,987.76
2016-03-05T03:05:05.851Z,987.7
2016-03-05T03:06:05.853Z,987.69
2016-03-05T03:07:05.857Z,987.66
2016-03-05T03:08:05.875Z,987.68
2016-03-05T03:09:05.878Z,987.65
2016-03-05T03:10:05.880Z,987.67
2016-03-05T03:11:05.883Z,987.65
2016-03-05T03:12:05.901Z,987.67
2016-03-05T03:13:05.904Z,987.66
2016-03-05T03:14:05.907Z,987.67
2016-03-05T03:15:05.909Z,987.67
2016-03-05T03:16:05.928Z,987.67
2016-03-05T03:17:05.930Z,987.62
2016-03-05T03:18:05.949Z,987.69
2016-03-05T03:19:05.935Z,987.63
2016-03-05T03:20:05.955Z,987.64
2016-03-05T03:21:05.958Z,987.58
2016-03-05T03:22:05.960Z,987.59
2016-03-05T03:23:05.963Z,987.6
2016-03-05T03:24:05.965Z,987.6
2016-03-05T03:25:05.983Z,987.64
2016-03-05T03:26:05.985Z,987.65
2016-03-05T03:27:05.988Z,987.64
2016-03-05T03:28:06.007Z,987.67
2016-03-05T03:29:06.010Z,987.66
2016-03-05T03:30:06.013Z,987.66
2016-03-05T03:31:06.015Z,987.64
2016-03-05T03:32:06.018Z,987.63
2016-03-05T03:33:06.035Z,987.6
2016-03-05T03:34:06.038Z,987.6
2016-03-05T03:35:06.041Z,987.59
2016-03-05T03:36:06.060Z,987.69
2016-03-05T03:37:06.062Z,987.59
2016-03-05T03:38:06.065Z,987.62
2016-03-05T03:39:06.067Z,987.62
2016-03-05T03:40:06.070Z,987.64
2016-03-05T03:41:06.089Z,987.63
2016-03-05T03:42:06.092Z,987.74
2016-03-05T03:43:06.095Z,987.72
2016-03-05T03:44:06.098Z,987.72
2016-03-05T03:45:06.115Z,987.71
2016-03-05T03:46:06.117Z,987.68
2016-03-05T03:47:06.120Z,987.7
2016-03-05T03:48:06.123Z,987.67
2016-03-05T03:49:06.141Z,987.66
2016-03-05T03:50:06.145Z,987.71
2016-03-05T03:51:06.147Z,987.67
2016-03-05T03:52:06.150Z,987.71
2016-03-05T03:53:06.152Z,987.67
2016-03-05T03:54:06.171Z,987.62
2016-03-05T03:55:06.173Z,987.62
2016-03-05T03:56:06.176Z,987.58
2016-03-05T03:57:06.179Z,987.59
2016-03-05T03:58:06.197Z,987.55
2016-03-05T03:59:06.200Z,987.56
2016-03-05T04:00:06.202Z,987.55
2016-03-05T04:01:06.205Z,987.54
2016-03-05T04:02:06.223Z,987.61
2016-03-05T04:03:06.226Z,987.58
2016-03-05T04:04:06.228Z,987.61
2016-03-05T04:05:06.232Z,987.62
2016-03-05T04:06:06.235Z,987.63
2016-03-05T04:07:06.252Z,987.68
2016-03-05T04:08:06.255Z,987.71
2016-03-05T04:09:06.257Z,987.74
2016-03-05T04:10:06.276Z,987.74
2016-03-05T04:11:06.279Z,987.79
2016-03-05T04:12:06.282Z,987.81
2016-03-05T04:13:06.285Z,987.85
2016-03-05T04:14:06.303Z,987.86
2016-03-05T04:15:06.306Z,987.86
2016-03-05T04:16:06.308Z,987.89
2016-03-05T04:17:06.310Z,987.89
2016-03-05T04:18:06.313Z,987.88
2016-03-05T04:19:06.332Z,987.9
2016-03-05T04:20:06.334Z,987.93
2016-03-05T04:21:06.337Z,987.94
2016-03-05T04:22:06.356Z,987.96
2016-03-05T04:23:06.358Z,987.96
2016-03-05T04:24:06.360Z,987.93
2016-03-05T04:25:06.363Z,987.88
2016-03-05T04:26:06.383Z,987.88
2016-03-05T04:27:06.385Z,987.89
2016-03-05T04:28:06.388Z,987.88
2016-03-05T04:29:06.390Z,987.91
2016-03-05T04:30:06.393Z,987.89
2016-03-05T04:31:06.395Z,987.87
2016-03-05T04:32:06.413Z,987.89
2016-03-05T04:33:06.415Z,987.92
2016-03-05T04:34:06.435Z,987.92
2016-03-05T04:35:06.422Z,987.9
2016-03-05T04:36:06.440Z,987.9
2016-03-05T04:37:06.443Z,987.9
2016-03-05T04:38:06.445Z,987.91
2016-03-05T04:39:06.448Z,987.91
2016-03-05T04:40:06.465Z,987.89
2016-03-05T04:41:06.468Z,987.92
2016-03-05T04:42:06.472Z,987.92
2016-03-05T04:43:06.474Z,987.95
2016-03-05T04:44:06.493Z,987.9
2016-03-05T04:45:06.495Z,987.96
2016-03-05T04:46:06.497Z,988
2016-03-05T04:47:06.500Z,988
2016-03-05T04:48:06.520Z,988.02
2016-03-05T04:49:06.522Z,987.99
2016-03-05T04:50:06.525Z,988.02
2016-03-05T04:51:06.542Z,988.03
2016-03-05T04:52:06.545Z,988.04
2016-03-05T04:53:06.547Z,988.03
2016-03-05T04:54:06.550Z,988
2016-03-05T04:55:06.569Z,988.04
2016-03-05T04:56:06.572Z,988.09
2016-03-05T04:57:06.575Z,988.07
2016-03-05T04:58:06.578Z,988.06
2016-03-05T04:59:06.580Z,988.08
2016-03-05T05:00:06.582Z,988.12
2016-03-05T05:01:06.601Z,988.1
2016-03-05T05:02:06.604Z,988.12
2016-03-05T05:03:06.607Z,988.12
2016-03-05T05:04:06.610Z,988.14
2016-03-05T05:05:06.627Z,988.11
2016-03-05T05:06:06.626Z,988.08
2016-03-05T05:07:06.633Z,988.13
2016-03-05T05:08:06.636Z,988.07
2016-03-05T05:09:06.638Z,988.09
2016-03-05T05:10:06.658Z,988.07
2016-03-05T05:11:06.661Z,988.04
2016-03-05T05:12:06.663Z,988.07
2016-03-05T05:13:06.666Z,988.02
2016-03-05T05:14:06.683Z,987.99
2016-03-05T05:15:06.686Z,987.98
2016-03-05T05:16:06.688Z,987.98
2016-03-05T05:17:06.691Z,987.98
2016-03-05T05:18:06.710Z,988
2016-03-05T05:19:06.713Z,987.94
2016-03-05T05:20:06.716Z,987.96
2016-03-05T05:21:06.718Z,987.85
2016-03-05T05:22:06.737Z,987.89
2016-03-05T05:23:06.739Z,987.87
2016-03-05T05:24:06.742Z,987.87
2016-03-05T05:25:06.744Z,987.84
2016-03-05T05:26:06.763Z,987.82
2016-03-05T05:27:06.766Z,987.78
2016-03-05T05:28:06.768Z,987.75
2016-03-05T05:29:06.771Z,987.76
2016-03-05T05:30:06.773Z,987.73
2016-03-05T05:31:06.792Z,987.76
2016-03-05T05:32:06.795Z,987.79
2016-03-05T05:33:06.797Z,987.81
2016-03-05T05:34:06.800Z,987.84
2016-03-05T05:35:06.802Z,987.88
2016-03-05T05:36:06.821Z,987.89
2016-03-05T05:37:06.823Z,987.89
2016-03-05T05:38:06.825Z,987.86
2016-03-05T05:39:06.844Z,987.91
2016-03-05T05:40:06.847Z,987.96
2016-03-05T05:41:06.850Z,987.99
2016-03-05T05:42:06.884Z,987.98
2016-03-05T05:43:06.871Z,988.04
2016-03-05T05:44:06.874Z,988.04
2016-03-05T05:45:06.877Z,988.01
2016-03-05T05:46:06.879Z,988.08
2016-03-05T05:47:06.897Z,988.06
2016-03-05T05:48:06.899Z,988.08
2016-03-05T05:49:06.903Z,988.05
2016-03-05T05:50:06.921Z,988.06
2016-03-05T05:51:06.908Z,988.14
2016-03-05T05:52:06.926Z,988.1
2016-03-05T05:53:06.929Z,988.11
2016-03-05T05:54:06.931Z,988.1
2016-03-05T05:55:06.935Z,988.1
2016-03-05T05:56:06.954Z,988.12
2016-03-05T05:57:06.956Z,988.14
2016-03-05T05:58:06.959Z,988.13
2016-03-05T05:59:06.961Z,988.1
2016-03-05T06:00:06.964Z,988.09
2016-03-05T06:01:06.982Z,988.1
2016-03-05T06:02:06.984Z,988.12
2016-03-05T06:03:06.988Z,988.11
2016-03-05T06:04:06.990Z,988.1
2016-03-05T06:05:07.009Z,988.05
2016-03-05T06:06:07.011Z,988.02
2016-03-05T06:07:07.014Z,987.97
2016-03-05T06:08:07.017Z,987.96
2016-03-05T06:09:07.034Z,987.92
2016-03-05T06:10:07.037Z,987.93
2016-03-05T06:11:07.040Z,987.91
2016-03-05T06:12:07.059Z,987.89
2016-03-05T06:13:07.061Z,987.87
2016-03-05T06:14:07.064Z,987.81
2016-03-05T06:15:07.066Z,987.76
2016-03-05T06:16:07.069Z,987.73
2016-03-05T06:17:07.087Z,987.69
2016-03-05T06:18:07.090Z,987.72
2016-03-05T06:19:07.094Z,987.71
2016-03-05T06:20:07.096Z,987.73
2016-03-05T06:21:07.099Z,987.71
2016-03-05T06:22:07.101Z,987.72
2016-03-05T06:23:07.118Z,987.73
2016-03-05T06:24:07.121Z,987.74
2016-03-05T06:25:07.124Z,987.76
2016-03-05T06:26:07.143Z,987.81
2016-03-05T06:27:07.146Z,987.85
2016-03-05T06:28:07.149Z,987.93
2016-03-05T06:29:07.167Z,987.96
2016-03-05T06:30:07.169Z,987.96
2016-03-05T06:31:07.172Z,987.96
2016-03-05T06:32:07.722Z,987.94
2016-03-05T06:33:07.178Z,987.95
2016-03-05T06:34:07.180Z,987.97
2016-03-05T06:35:07.199Z,988
2016-03-05T06:36:07.201Z,988.04
2016-03-05T06:37:07.203Z,988.06
2016-03-05T06:38:07.222Z,988.07
2016-03-05T06:39:07.225Z,988.06
2016-03-05T06:40:07.228Z,988.02
2016-03-05T06:41:07.231Z,988
2016-03-05T06:42:07.248Z,987.99
2016-03-05T06:43:07.236Z,987.98
2016-03-05T06:44:07.253Z,988.06
2016-03-05T06:45:07.256Z,988.07
2016-03-05T06:46:07.274Z,988.05
2016-03-05T06:47:07.277Z,988.12
2016-03-05T06:48:07.281Z,988.1
2016-03-05T06:49:07.283Z,988.18
2016-03-05T06:50:07.286Z,988.23
2016-03-05T06:51:07.304Z,988.25
2016-03-05T06:52:07.307Z,988.28
2016-03-05T06:53:07.309Z,988.24
2016-03-05T06:54:07.312Z,988.28
2016-03-05T06:55:07.330Z,988.29
2016-03-05T06:56:07.333Z,988.35
2016-03-05T06:57:07.352Z,988.38
2016-03-05T06:58:07.338Z,988.39
2016-03-05T06:59:07.341Z,988.41
2016-03-05T07:00:07.359Z,988.47
2016-03-05T07:01:07.362Z,988.5
2016-03-05T07:02:07.365Z,988.55
2016-03-05T07:03:07.367Z,988.56
2016-03-05T07:04:07.387Z,988.56
2016-03-05T07:05:07.389Z,988.54
2016-03-05T07:06:07.392Z,988.57
2016-03-05T07:07:07.394Z,988.54
2016-03-05T07:08:07.397Z,988.52
2016-03-05T07:09:07.414Z,988.51
2016-03-05T07:10:07.417Z,988.51
2016-03-05T07:11:07.420Z,988.51
2016-03-05T07:12:07.423Z,988.51
2016-03-05T07:13:07.456Z,988.45
2016-03-05T07:14:07.444Z,988.46
2016-03-05T07:15:07.446Z,988.43
2016-03-05T07:16:07.449Z,988.43
2016-03-05T07:17:07.467Z,988.46
2016-03-05T07:18:07.470Z,988.44
2016-03-05T07:19:07.473Z,988.43
2016-03-05T07:20:07.476Z,988.45
2016-03-05T07:21:07.494Z,988.5
2016-03-05T07:22:07.496Z,988.48
2016-03-05T07:23:07.499Z,988.49
2016-03-05T07:24:07.502Z,988.48
2016-03-05T07:25:07.505Z,988.52
2016-03-05T07:26:07.523Z,988.5
2016-03-05T07:27:07.526Z,988.5
2016-03-05T07:28:07.529Z,988.5
2016-03-05T07:29:07.547Z,988.52
2016-03-05T07:30:07.549Z,988.47
2016-03-05T07:31:07.552Z,988.46
2016-03-05T07:32:07.554Z,988.41
2016-03-05T07:33:07.574Z,988.39
2016-03-05T07:34:07.576Z,988.4
2016-03-05T07:35:07.578Z,988.41
2016-03-05T07:36:07.581Z,988.37
2016-03-05T07:37:07.584Z,988.38
2016-03-05T07:38:07.602Z,988.37
2016-03-05T07:39:07.605Z,988.38
2016-03-05T07:40:07.608Z,988.36
2016-03-05T07:41:07.611Z,988.36
2016-03-05T07:42:07.629Z,988.35
2016-03-05T07:43:07.631Z,988.33
2016-03-05T07:44:07.634Z,988.37
2016-03-05T07:45:07.636Z,988.37
2016-03-05T07:46:07.655Z,988.41
2016-03-05T07:47:07.658Z,988.42
2016-03-05T07:48:07.660Z,988.46
2016-03-05T07:49:07.679Z,988.42
2016-03-05T07:50:07.666Z,988.48
2016-03-05T07:51:07.684Z,988.42
2016-03-05T07:52:07.686Z,988.47
2016-03-05T07:53:07.689Z,988.48
2016-03-05T07:54:07.708Z,988.44
2016-03-05T07:55:07.710Z,988.43
2016-03-05T07:56:07.713Z,988.42
2016-03-05T07:57:07.716Z,988.4
2016-03-05T07:58:07.735Z,988.44
2016-03-05T07:59:07.737Z,988.49
2016-03-05T08:00:07.740Z,988.5
2016-03-05T08:01:07.742Z,988.51
2016-03-05T08:02:07.777Z,988.49
2016-03-05T08:03:07.763Z,988.51
2016-03-05T08:04:07.766Z,988.53
2016-03-05T08:05:07.769Z,988.49
2016-03-05T08:06:07.788Z,988.5
2016-03-05T08:07:07.790Z,988.52
2016-03-05T08:08:07.793Z,988.51
2016-03-05T08:09:07.812Z,988.53
2016-03-05T08:10:07.815Z,988.48
2016-03-05T08:11:07.817Z,988.46
2016-03-05T08:12:07.820Z,988.47
2016-03-05T08:13:07.838Z,988.51
2016-03-05T08:14:07.840Z,988.45
2016-03-05T08:15:07.843Z,988.49
2016-03-05T08:16:07.846Z,988.49
2016-03-05T08:17:07.865Z,988.55
2016-03-05T08:18:07.868Z,988.57
2016-03-05T08:19:07.870Z,988.56
2016-03-05T08:20:07.887Z,988.59
2016-03-05T08:21:07.890Z,988.59
2016-03-05T08:22:07.893Z,988.59
2016-03-05T08:23:07.912Z,988.58
2016-03-05T08:24:07.915Z,988.62
2016-03-05T08:25:07.917Z,988.59
2016-03-05T08:26:07.936Z,988.6
2016-03-05T08:27:07.939Z,988.56
2016-03-05T08:28:07.941Z,988.57
2016-03-05T08:29:07.944Z,988.52
2016-03-05T08:30:07.961Z,988.53
2016-03-05T08:31:07.964Z,988.54
2016-03-05T08:32:07.967Z,988.52
2016-03-05T08:33:07.985Z,988.53
2016-03-05T08:34:07.989Z,988.55
2016-03-05T08:35:07.991Z,988.57
2016-03-05T08:36:08.010Z,988.52
2016-03-05T08:37:08.012Z,988.5
2016-03-05T08:38:08.015Z,988.48
2016-03-05T08:39:08.018Z,988.47
2016-03-05T08:40:08.035Z,988.47
2016-03-05T08:41:08.038Z,988.46
2016-03-05T08:42:08.041Z,988.5
2016-03-05T08:43:08.060Z,988.5
2016-03-05T08:44:08.062Z,988.51
2016-03-05T08:45:08.065Z,988.5
2016-03-05T08:46:08.068Z,988.52
2016-03-05T08:47:08.085Z,988.53
2016-03-05T08:48:08.088Z,988.55
2016-03-05T08:49:08.106Z,988.59
2016-03-05T08:50:08.110Z,988.56
2016-03-05T08:51:08.112Z,988.62
2016-03-05T08:52:08.115Z,988.59
2016-03-05T08:53:08.133Z,988.6
2016-03-05T08:54:08.136Z,988.65
2016-03-05T08:55:08.139Z,988.64
2016-03-05T08:56:08.156Z,988.68
2016-03-05T08:57:08.159Z,988.67
2016-03-05T08:58:08.162Z,988.67
2016-03-05T08:59:08.181Z,988.67
2016-03-05T09:00:08.183Z,988.69
2016-03-05T09:01:08.186Z,988.71
2016-03-05T09:02:08.189Z,988.74
2016-03-05T09:03:08.208Z,988.75
2016-03-05T09:04:08.210Z,988.77
2016-03-05T09:05:08.212Z,988.77
2016-03-05T09:06:08.230Z,988.8
2016-03-05T09:07:08.233Z,988.77
2016-03-05T09:08:08.252Z,988.8
2016-03-05T09:09:08.255Z,988.74
2016-03-05T09:10:08.257Z,988.76
2016-03-05T09:11:08.260Z,988.76
2016-03-05T09:12:08.277Z,988.76
2016-03-05T09:13:08.280Z,988.71
2016-03-05T09:14:08.283Z,988.71
2016-03-05T09:15:08.286Z,988.71
2016-03-05T09:16:08.304Z,988.72
2016-03-05T09:17:08.307Z,988.69
2016-03-05T09:18:08.309Z,988.67
2016-03-05T09:19:08.328Z,988.72
2016-03-05T09:20:08.331Z,988.72
2016-03-05T09:21:08.334Z,988.69
2016-03-05T09:22:08.351Z,988.71
2016-03-05T09:23:08.354Z,988.71
2016-03-05T09:24:08.357Z,988.71
2016-03-05T09:25:08.359Z,988.71
2016-03-05T09:26:08.378Z,988.7
2016-03-05T09:27:08.369Z,988.69
2016-03-05T09:28:08.373Z,988.7
2016-03-05T09:29:08.361Z,988.72
2016-03-05T09:30:08.350Z,988.76
2016-03-05T09:31:08.338Z,988.74
2016-03-05T09:32:08.350Z,988.75
2016-03-05T09:33:08.347Z,988.8
2016-03-05T09:34:08.361Z,988.8
2016-03-05T09:35:08.359Z,988.82
2016-03-05T09:36:08.357Z,988.84
2016-03-05T09:37:08.357Z,988.85
2016-03-05T09:38:08.358Z,988.91
2016-03-05T09:39:08.374Z,988.88
2016-03-05T09:40:08.374Z,988.9
2016-03-05T09:41:08.407Z,988.89
2016-03-05T09:42:08.393Z,988.91
2016-03-05T09:43:08.396Z,988.88
2016-03-05T09:44:08.398Z,988.91
2016-03-05T09:45:08.416Z,988.94
2016-03-05T09:46:08.419Z,988.95
2016-03-05T09:47:08.421Z,988.89
2016-03-05T09:48:08.438Z,988.93
2016-03-05T09:49:08.440Z,988.98
2016-03-05T09:50:08.442Z,988.94
2016-03-05T09:51:08.445Z,988.97
2016-03-05T09:52:08.464Z,988.98
2016-03-05T09:53:08.466Z,988.94
2016-03-05T09:54:08.469Z,988.94
2016-03-05T09:55:08.488Z,988.94
2016-03-05T09:56:08.491Z,988.91
2016-03-05T09:57:08.493Z,988.87
2016-03-05T09:58:08.511Z,988.81
2016-03-05T09:59:08.514Z,988.81
2016-03-05T10:00:08.517Z,988.81
2016-03-05T10:01:08.535Z,988.79
2016-03-05T10:02:08.537Z,988.77
2016-03-05T10:03:08.540Z,988.73
2016-03-05T10:04:08.543Z,988.75
2016-03-05T10:05:08.561Z,988.71
2016-03-05T10:06:08.564Z,988.72
2016-03-05T10:07:08.598Z,988.73
2016-03-05T10:08:08.585Z,988.75
2016-03-05T10:09:08.587Z,988.76
2016-03-05T10:10:08.590Z,988.78
2016-03-05T10:11:08.592Z,988.79
2016-03-05T10:12:08.612Z,988.8
2016-03-05T10:13:08.614Z,988.78
2016-03-05T10:14:08.632Z,988.78
2016-03-05T10:15:08.635Z,988.76
2016-03-05T10:16:08.638Z,988.76
2016-03-05T10:17:08.640Z,988.78
2016-03-05T10:18:08.658Z,988.79
2016-03-05T10:19:08.661Z,988.78
2016-03-05T10:20:08.680Z,988.84
2016-03-05T10:21:08.667Z,988.83
2016-03-05T10:22:08.686Z,988.83
2016-03-05T10:23:08.688Z,988.84
2016-03-05T10:24:08.706Z,988.82
2016-03-05T10:25:08.708Z,988.84
2016-03-05T10:26:08.711Z,988.82
2016-03-05T10:27:08.714Z,988.81
2016-03-05T10:28:08.733Z,988.83
2016-03-05T10:29:08.736Z,988.85
2016-03-05T10:30:08.738Z,988.85
2016-03-05T10:31:08.756Z,988.88
2016-03-05T10:32:08.758Z,988.84
2016-03-05T10:33:08.761Z,988.85
2016-03-05T10:34:08.779Z,988.88
2016-03-05T10:35:08.782Z,988.91
2016-03-05T10:36:08.785Z,988.96
2016-03-05T10:37:08.788Z,988.94
2016-03-05T10:38:08.807Z,988.98
2016-03-05T10:39:08.809Z,988.94
2016-03-05T10:40:08.827Z,988.98
2016-03-05T10:41:08.829Z,989.01
2016-03-05T10:42:08.832Z,988.94
2016-03-05T10:43:08.834Z,988.96
2016-03-05T10:44:08.854Z,989.03
2016-03-05T10:45:08.857Z,989.06
2016-03-05T10:46:08.859Z,989.06
2016-03-05T10:47:08.878Z,989.07
2016-03-05T10:48:08.895Z,989.12
2016-03-05T10:49:08.883Z,989.12
2016-03-05T10:50:08.901Z,989.13
2016-03-05T10:51:08.904Z,989.16
2016-03-05T10:52:08.906Z,989.16
2016-03-05T10:53:08.909Z,989.16
2016-03-05T10:54:08.928Z,989.23
2016-03-05T10:55:08.930Z,989.24
2016-03-05T10:56:08.933Z,989.21
2016-03-05T10:57:08.950Z,989.25
2016-03-05T10:58:08.954Z,989.27
2016-03-05T10:59:08.955Z,989.27
2016-03-05T11:00:08.975Z,989.32
2016-03-05T11:01:08.977Z,989.28
2016-03-05T11:02:08.980Z,989.27
2016-03-05T11:03:08.982Z,989.31
2016-03-05T11:04:09.001Z,989.33
2016-03-05T11:05:09.004Z,989.33
2016-03-05T11:06:09.007Z,989.32
2016-03-05T11:07:09.024Z,989.34
2016-03-05T11:08:09.028Z,989.36
2016-03-05T11:09:09.030Z,989.35
2016-03-05T11:10:09.048Z,989.37
2016-03-05T11:11:09.051Z,989.39
2016-03-05T11:12:09.069Z,989.39
2016-03-05T11:13:09.057Z,989.4
2016-03-05T11:14:09.075Z,989.44
2016-03-05T11:15:09.078Z,989.4
2016-03-05T11:16:09.081Z,989.42
2016-03-05T11:17:09.083Z,989.4
2016-03-05T11:18:09.086Z,989.36
2016-03-05T11:19:09.103Z,989.35
2016-03-05T11:20:09.106Z,989.37
2016-03-05T11:21:09.110Z,989.29
2016-03-05T11:22:09.112Z,989.33
2016-03-05T11:23:09.115Z,989.33
2016-03-05T11:24:09.102Z,989.34
2016-03-05T11:25:09.105Z,989.38
2016-03-05T11:26:09.107Z,989.4
2016-03-05T11:27:09.110Z,989.43
2016-03-05T11:28:09.127Z,989.4
2016-03-05T11:29:09.115Z,989.42
2016-03-05T11:30:09.119Z,989.38
2016-03-05T11:31:09.121Z,989.36
2016-03-05T11:32:09.124Z,989.36
2016-03-05T11:33:09.110Z,989.35
2016-03-05T11:34:09.113Z,989.36
2016-03-05T11:35:09.115Z,989.33
2016-03-05T11:36:09.118Z,989.3
2016-03-05T11:37:09.122Z,989.33
2016-03-05T11:38:09.124Z,989.34
2016-03-05T11:39:09.127Z,989.3
2016-03-05T11:40:09.113Z,989.32
2016-03-05T11:41:09.132Z,989.31
2016-03-05T11:42:09.118Z,989.32
2016-03-05T11:43:09.121Z,989.29
2016-03-05T11:44:09.124Z,989.3
2016-03-05T11:45:09.112Z,989.29
2016-03-05T11:46:09.115Z,989.33
2016-03-05T11:47:09.117Z,989.28
2016-03-05T11:48:09.120Z,989.25
2016-03-05T11:49:09.122Z,989.28
2016-03-05T11:50:09.110Z,989.24
2016-03-05T11:51:09.127Z,989.19
2016-03-05T11:52:09.115Z,989.15
2016-03-05T11:53:09.117Z,989.14
2016-03-05T11:54:09.120Z,989.17
2016-03-05T11:55:09.122Z,989.15
2016-03-05T11:56:09.125Z,989.18
2016-03-05T11:57:09.112Z,989.22
2016-03-05T11:58:09.114Z,989.21
2016-03-05T11:59:09.118Z,989.27
2016-03-05T12:00:09.120Z,989.19
2016-03-05T12:01:09.123Z,989.22
2016-03-05T12:02:09.110Z,989.18
2016-03-05T12:03:09.128Z,989.15
2016-03-05T12:04:09.116Z,989.13
2016-03-05T12:05:09.118Z,989.1
2016-03-05T12:06:09.122Z,989.05
2016-03-05T12:07:09.124Z,989
2016-03-05T12:08:09.127Z,989.05
2016-03-05T12:09:09.130Z,989.02
2016-03-05T12:10:09.116Z,989.02
2016-03-05T12:11:09.118Z,989.01
2016-03-05T12:12:09.106Z,988.96
2016-03-05T12:13:09.109Z,989
2016-03-05T12:14:09.111Z,988.97
2016-03-05T12:15:09.115Z,988.98
2016-03-05T12:16:09.117Z,988.94
2016-03-05T12:17:09.104Z,988.91
2016-03-05T12:18:09.106Z,988.92
2016-03-05T12:19:09.109Z,988.91
2016-03-05T12:20:09.112Z,988.89
2016-03-05T12:21:09.114Z,988.86
2016-03-05T12:22:09.102Z,988.89
2016-03-05T12:23:09.136Z,988.82
2016-03-05T12:24:09.107Z,988.88
2016-03-05T12:25:09.095Z,988.86
2016-03-05T12:26:09.097Z,988.82
2016-03-05T12:27:09.099Z,988.83
2016-03-05T12:28:09.102Z,988.81
2016-03-05T12:29:09.089Z,988.84
2016-03-05T12:30:09.092Z,988.86
2016-03-05T12:31:09.095Z,988.85